createdAt,value
2022-10-30T00:01:51.035Z,99.90
2022-10-30T00:04:20.322Z,99.90
2022-10-30T00:06:49.166Z,99.90
2022-10-30T00:09:17.105Z,99.90
2022-10-30T00:11:44.983Z,99.90
2022-10-30T00:14:13.903Z,99.90
2022-10-30T00:16:41.796Z,99.90
2022-10-30T00:19:09.694Z,99.90
2022-10-30T00:21:38.987Z,99.90
2022-10-30T00:24:08.924Z,99.90
2022-10-30T00:26:36.845Z,99.90
2022-10-30T00:29:04.747Z,99.90
2022-10-30T00:31:32.702Z,99.90
2022-10-30T00:34:00.604Z,99.90
2022-10-30T00:36:29.556Z,99.90
2022-10-30T00:38:58.837Z,99.90
2022-10-30T00:41:26.944Z,99.90
2022-10-30T00:43:56.520Z,99.90
2022-10-30T00:46:30.926Z,99.90
2022-10-30T00:49:05.353Z,99.90
2022-10-30T00:51:35.423Z,99.90
2022-10-30T00:54:06.449Z,99.90
2022-10-30T00:56:34.987Z,99.90
2022-10-30T00:59:07.768Z,99.90
2022-10-30T01:01:40.104Z,99.90
2022-10-30T01:04:08.749Z,99.90
2022-10-30T01:06:39.801Z,99.90
2022-10-30T01:09:09.422Z,99.90
2022-10-30T01:11:37.597Z,99.90
2022-10-30T01:14:09.169Z,99.90
2022-10-30T01:16:54.886Z,99.90
2022-10-30T01:19:35.883Z,99.90
2022-10-30T01:22:22.103Z,99.90
2022-10-30T01:25:02.821Z,99.90
2022-10-30T01:27:40.898Z,99.90
2022-10-30T01:30:23.411Z,99.90
2022-10-30T01:33:02.376Z,99.90
2022-10-30T01:35:37.748Z,99.90
2022-10-30T01:38:11.302Z,99.90
2022-10-30T01:40:40.568Z,99.90
2022-10-30T01:43:10.417Z,99.90
2022-10-30T01:46:16.972Z,99.90
2022-10-30T01:49:11.689Z,99.90
2022-10-30T01:51:50.182Z,99.90
2022-10-30T01:54:26.499Z,99.90
2022-10-30T01:57:06.269Z,99.90
2022-10-30T01:59:40.486Z,99.90
2022-10-30T02:02:10.071Z,99.90
2022-10-30T02:04:39.115Z,99.90
2022-10-30T02:07:07.471Z,99.90
2022-10-30T02:09:42.486Z,99.90
2022-10-30T02:12:12.024Z,99.90
2022-10-30T02:14:44.680Z,99.90
2022-10-30T02:17:13.591Z,99.90
2022-10-30T02:19:42.817Z,99.90
2022-10-30T02:22:12.678Z,99.90
2022-10-30T02:24:40.890Z,99.90
2022-10-30T02:27:08.833Z,99.90
2022-10-30T02:29:36.937Z,99.90
2022-10-30T02:32:06.480Z,99.90
2022-10-30T02:34:36.741Z,99.90
2022-10-30T02:37:04.676Z,99.90
2022-10-30T02:39:33.959Z,99.90
2022-10-30T02:42:02.444Z,99.90
2022-10-30T02:44:30.370Z,99.90
2022-10-30T02:46:58.295Z,99.90
2022-10-30T02:49:26.216Z,99.90
2022-10-30T02:51:54.209Z,99.90
2022-10-30T02:54:22.452Z,99.90
2022-10-30T02:56:51.998Z,99.90
2022-10-30T02:59:20.563Z,99.90
2022-10-30T03:01:49.720Z,99.90
2022-10-30T03:04:17.885Z,99.90
2022-10-30T03:06:45.798Z,99.90
2022-10-30T03:09:13.739Z,99.90
2022-10-30T03:11:42.153Z,99.90
2022-10-30T03:14:11.536Z,99.90
2022-10-30T03:16:39.620Z,99.90
2022-10-30T03:19:07.545Z,99.90
2022-10-30T03:21:35.491Z,99.90
2022-10-30T03:24:03.474Z,99.90
2022-10-30T03:26:31.458Z,99.90
2022-10-30T03:29:05.783Z,99.90
2022-10-30T03:31:36.333Z,99.90
2022-10-30T03:34:33.574Z,99.90
2022-10-30T03:37:06.163Z,99.90
2022-10-30T03:39:35.057Z,99.90
2022-10-30T03:42:04.193Z,99.90
2022-10-30T03:44:32.233Z,99.90
2022-10-30T03:47:01.607Z,99.90
2022-10-30T03:49:40.772Z,99.90
2022-10-30T03:52:12.653Z,99.90
2022-10-30T03:54:40.597Z,99.90
2022-10-30T03:57:10.698Z,99.90
2022-10-30T03:59:51.526Z,99.90
2022-10-30T04:02:41.150Z,99.90
2022-10-30T04:05:10.009Z,99.90
2022-10-30T04:07:37.965Z,99.90
2022-10-30T04:10:06.702Z,99.90
2022-10-30T04:12:35.529Z,99.90
2022-10-30T04:15:03.600Z,99.90
2022-10-30T04:17:31.571Z,99.90
2022-10-30T04:20:03.871Z,99.90
2022-10-30T04:22:33.233Z,99.90
2022-10-30T04:25:01.153Z,99.90
2022-10-30T04:27:31.208Z,99.90
2022-10-30T04:29:59.193Z,99.90
2022-10-30T04:32:27.208Z,99.90
2022-10-30T04:34:56.032Z,99.90
2022-10-30T04:37:25.422Z,99.90
2022-10-30T04:39:53.464Z,99.90
2022-10-30T04:42:26.613Z,99.90
2022-10-30T04:44:54.910Z,99.90
2022-10-30T04:47:22.978Z,99.90
2022-10-30T04:49:50.975Z,99.90
2022-10-30T04:52:18.959Z,99.90
2022-10-30T04:54:48.266Z,99.90
2022-10-30T04:57:16.206Z,99.90
2022-10-30T04:59:44.912Z,99.90
2022-10-30T05:02:13.022Z,99.90
2022-10-30T05:04:41.073Z,99.90
2022-10-30T05:07:09.163Z,99.90
2022-10-30T05:09:37.063Z,99.90
2022-10-30T05:12:06.888Z,99.90
2022-10-30T05:14:42.576Z,99.90
2022-10-30T05:17:10.955Z,99.90
2022-10-30T05:19:39.147Z,99.90
2022-10-30T05:22:07.490Z,99.90
2022-10-30T05:24:36.729Z,99.90
2022-10-30T05:27:06.229Z,99.90
2022-10-30T05:29:35.320Z,99.90
2022-10-30T05:32:03.317Z,99.90
2022-10-30T05:34:46.663Z,99.90
2022-10-30T05:37:18.990Z,99.90
2022-10-30T05:39:47.015Z,99.90
2022-10-30T05:42:26.496Z,99.90
2022-10-30T05:45:00.892Z,99.90
2022-10-30T05:47:29.993Z,99.90
2022-10-30T05:49:58.635Z,99.90
2022-10-30T05:52:29.175Z,99.90
2022-10-30T05:54:58.317Z,99.90
2022-10-30T05:57:39.348Z,99.90
2022-10-30T06:00:08.713Z,99.90
2022-10-30T06:02:43.417Z,99.90
2022-10-30T06:05:12.787Z,99.90
2022-10-30T06:07:40.741Z,99.90
2022-10-30T06:10:09.588Z,99.90
2022-10-30T06:12:44.075Z,99.90
2022-10-30T06:15:32.360Z,99.90
2022-10-30T06:18:01.447Z,99.90
2022-10-30T06:20:41.292Z,99.90
2022-10-30T06:23:24.211Z,99.90
2022-10-30T06:26:12.447Z,99.90
2022-10-30T06:28:47.096Z,99.90
2022-10-30T06:31:16.230Z,99.90
2022-10-30T06:33:44.203Z,99.90
2022-10-30T06:36:13.943Z,99.90
2022-10-30T06:38:42.533Z,99.90
2022-10-30T06:41:11.289Z,99.90
2022-10-30T06:43:48.618Z,99.90
2022-10-30T06:46:30.527Z,99.90
2022-10-30T06:49:01.650Z,99.90
2022-10-30T06:51:32.961Z,99.90
2022-10-30T06:54:02.297Z,99.90
2022-10-30T06:56:39.202Z,99.90
2022-10-30T06:59:11.629Z,99.90
2022-10-30T07:02:01.054Z,99.90
2022-10-30T07:04:40.560Z,99.90
2022-10-30T07:07:09.228Z,99.90
2022-10-30T07:09:37.150Z,99.90
2022-10-30T07:12:07.223Z,99.90
2022-10-30T07:14:43.407Z,99.90
2022-10-30T07:17:40.299Z,99.90
2022-10-30T07:20:15.400Z,99.90
2022-10-30T07:22:43.620Z,99.90
2022-10-30T07:25:12.507Z,99.90
2022-10-30T07:27:59.160Z,99.90
2022-10-30T07:30:54.623Z,99.90
2022-10-30T07:33:43.572Z,99.90
2022-10-30T07:36:34.206Z,99.90
2022-10-30T07:39:25.184Z,99.90
2022-10-30T07:42:07.166Z,99.90
2022-10-30T07:44:47.295Z,99.90
2022-10-30T07:47:20.745Z,99.90
2022-10-30T07:50:10.155Z,99.90
2022-10-30T07:52:39.247Z,99.90
2022-10-30T07:55:08.388Z,99.90
2022-10-30T07:57:45.091Z,99.90
2022-10-30T08:00:31.719Z,99.90
2022-10-30T08:03:10.529Z,99.90
2022-10-30T08:05:47.078Z,99.90
2022-10-30T08:08:21.255Z,99.90
2022-10-30T08:10:57.132Z,99.90
2022-10-30T08:13:25.621Z,99.90
2022-10-30T08:15:53.554Z,99.90
2022-10-30T08:18:23.056Z,99.90
2022-10-30T08:20:51.397Z,99.90
2022-10-30T08:23:21.710Z,99.90
2022-10-30T08:25:49.824Z,99.90
2022-10-30T08:28:18.540Z,99.90
2022-10-30T08:30:46.638Z,99.90
2022-10-30T08:33:17.969Z,99.90
2022-10-30T08:36:00.769Z,99.90
2022-10-30T08:38:29.956Z,99.90
2022-10-30T08:41:12.510Z,99.90
2022-10-30T08:43:49.629Z,99.90
2022-10-30T08:46:18.941Z,99.90
2022-10-30T08:48:47.366Z,99.90
2022-10-30T08:51:16.681Z,99.90
2022-10-30T08:53:49.120Z,99.90
2022-10-30T08:56:17.379Z,99.90
2022-10-30T08:58:53.516Z,99.90
2022-10-30T09:01:21.673Z,99.90
2022-10-30T09:04:08.580Z,99.90
2022-10-30T09:07:16.757Z,99.90
2022-10-30T09:09:50.293Z,99.90
2022-10-30T09:12:18.226Z,99.90
2022-10-30T09:14:47.667Z,99.90
2022-10-30T09:17:15.604Z,99.90
2022-10-30T09:22:20.721Z,99.90
2022-10-30T09:24:49.565Z,99.90
2022-10-30T09:27:43.823Z,99.90
2022-10-30T09:30:14.285Z,99.90
2022-10-30T09:32:47.301Z,99.90
2022-10-30T09:35:22.303Z,99.90
2022-10-30T09:37:52.641Z,99.90
2022-10-30T09:40:29.566Z,99.90
2022-10-30T09:43:03.246Z,99.90
2022-10-30T09:45:49.698Z,99.90
2022-10-30T09:48:45.103Z,99.90
2022-10-30T09:51:32.655Z,99.90
2022-10-30T09:54:11.047Z,99.90
2022-10-30T09:56:48.217Z,99.90
2022-10-30T09:59:31.017Z,99.90
2022-10-30T10:02:05.195Z,99.90
2022-10-30T10:04:41.260Z,99.90
2022-10-30T10:07:20.702Z,99.90
2022-10-30T10:10:35.257Z,99.90
2022-10-30T10:13:27.657Z,99.90
2022-10-30T10:16:00.124Z,99.90
2022-10-30T10:21:14.818Z,99.90
2022-10-30T10:23:48.533Z,99.90
2022-10-30T10:26:31.269Z,99.90
2022-10-30T10:29:21.436Z,99.90
2022-10-30T10:31:58.728Z,99.90
2022-10-30T10:34:40.749Z,99.90
2022-10-30T10:37:17.287Z,99.90
2022-10-30T10:40:00.511Z,99.90
2022-10-30T10:42:40.951Z,99.90
2022-10-30T10:45:23.154Z,99.90
2022-10-30T10:48:10.614Z,99.90
2022-10-30T10:50:43.293Z,99.90
2022-10-30T10:53:15.897Z,99.90
2022-10-30T10:55:48.744Z,99.90
2022-10-30T10:58:26.877Z,99.90
2022-10-30T11:00:57.121Z,99.90
2022-10-30T11:03:30.694Z,99.90
2022-10-30T11:06:04.297Z,99.90
2022-10-30T11:08:34.836Z,99.80
2022-10-30T11:11:04.502Z,99.90
2022-10-30T11:13:37.464Z,99.90
2022-10-30T11:16:16.555Z,99.20
2022-10-30T11:18:45.345Z,98.70
2022-10-30T11:21:18.403Z,99.20
2022-10-30T11:23:47.966Z,98.30
2022-10-30T11:26:29.361Z,98.60
2022-10-30T11:29:03.060Z,98.20
2022-10-30T11:31:35.200Z,98.20
2022-10-30T11:34:31.831Z,98.60
2022-10-30T11:37:00.071Z,98.80
2022-10-30T11:39:29.975Z,98.50
2022-10-30T11:42:01.431Z,98.20
2022-10-30T11:44:34.628Z,98.10
2022-10-30T11:47:03.350Z,98.20
2022-10-30T11:49:42.606Z,97.70
2022-10-30T11:52:11.816Z,97.80
2022-10-30T11:54:44.751Z,98.20
2022-10-30T11:57:22.070Z,98.10
2022-10-30T11:59:53.350Z,98.00
2022-10-30T12:02:23.887Z,97.40
2022-10-30T12:04:52.571Z,97.30
2022-10-30T12:07:27.721Z,97.50
2022-10-30T12:09:57.499Z,97.60
2022-10-30T12:12:29.241Z,97.20
2022-10-30T12:15:11.520Z,97.40
2022-10-30T12:17:41.033Z,97.60
2022-10-30T12:20:14.757Z,97.50
2022-10-30T12:22:42.826Z,97.00
2022-10-30T12:25:23.380Z,97.00
2022-10-30T12:27:58.934Z,97.20
2022-10-30T12:30:31.963Z,96.80
2022-10-30T12:33:05.015Z,97.20
2022-10-30T12:35:42.288Z,97.10
2022-10-30T12:38:16.612Z,97.40
2022-10-30T12:40:52.759Z,97.20
2022-10-30T12:43:25.602Z,97.10
2022-10-30T12:46:02.327Z,97.10
2022-10-30T12:48:37.702Z,97.20
2022-10-30T12:51:19.844Z,97.30
2022-10-30T12:53:58.536Z,97.30
2022-10-30T12:56:29.616Z,97.30
2022-10-30T12:59:04.090Z,97.60
2022-10-30T13:01:42.363Z,97.90
2022-10-30T13:04:17.654Z,97.70
2022-10-30T13:06:51.741Z,97.40
2022-10-30T13:09:22.941Z,97.00
2022-10-30T13:11:58.021Z,97.30
2022-10-30T13:14:34.949Z,97.50
2022-10-30T13:17:04.243Z,97.50
2022-10-30T13:19:32.328Z,97.30
2022-10-30T13:22:06.259Z,97.30
2022-10-30T13:24:45.383Z,97.80
2022-10-30T13:27:18.644Z,97.00
2022-10-30T13:29:53.542Z,97.30
2022-10-30T13:32:35.431Z,97.40
2022-10-30T13:35:18.548Z,97.10
2022-10-30T13:37:54.750Z,97.10
2022-10-30T13:40:31.271Z,96.30
2022-10-30T13:43:12.837Z,95.80
2022-10-30T13:45:56.208Z,94.90
2022-10-30T13:48:37.579Z,95.80
2022-10-30T13:51:33.940Z,95.60
2022-10-30T13:54:12.326Z,95.10
2022-10-30T13:56:41.412Z,95.30
2022-10-30T13:59:21.492Z,95.40
2022-10-30T14:02:01.645Z,95.10
2022-10-30T14:04:38.321Z,94.30
2022-10-30T14:07:22.666Z,94.50
2022-10-30T14:10:01.962Z,94.60
2022-10-30T14:12:53.427Z,94.90
2022-10-30T14:15:32.633Z,94.30
2022-10-30T14:18:29.815Z,94.10
2022-10-30T14:21:00.894Z,94.50
2022-10-30T14:23:34.380Z,94.70
2022-10-30T14:26:23.219Z,95.10
2022-10-30T14:28:53.651Z,95.70
2022-10-30T14:31:34.880Z,95.90
2022-10-30T14:34:03.105Z,96.10
2022-10-30T14:36:50.743Z,96.10
2022-10-30T14:39:30.644Z,96.20
2022-10-30T14:42:10.924Z,96.70
2022-10-30T14:44:53.253Z,97.10
2022-10-30T14:47:44.418Z,97.70
2022-10-30T14:50:19.712Z,98.10
2022-10-30T14:53:06.561Z,98.50
2022-10-30T14:55:39.158Z,98.60
2022-10-30T14:58:18.124Z,98.70
2022-10-30T15:00:46.774Z,99.10
2022-10-30T15:03:37.100Z,99.60
2022-10-30T15:06:15.527Z,99.80
2022-10-30T15:08:59.426Z,99.90
2022-10-30T15:11:41.465Z,99.90
2022-10-30T15:14:21.244Z,99.90
2022-10-30T15:16:54.877Z,99.90
2022-10-30T15:19:25.477Z,99.90
2022-10-30T15:21:57.803Z,99.90
2022-10-30T15:24:32.515Z,99.90
2022-10-30T15:27:02.262Z,99.90
2022-10-30T15:29:33.157Z,99.90
2022-10-30T15:32:02.541Z,99.90
2022-10-30T15:34:33.009Z,99.90
2022-10-30T15:37:01.035Z,99.90
2022-10-30T15:39:30.332Z,99.90
2022-10-30T15:42:00.730Z,99.90
2022-10-30T15:44:31.455Z,99.90
2022-10-30T15:47:02.701Z,99.90
2022-10-30T15:49:34.047Z,99.90
2022-10-30T15:52:04.293Z,99.90
2022-10-30T15:54:34.898Z,99.90
2022-10-30T15:57:49.413Z,99.90
2022-10-30T15:59:54.059Z,99.80
2022-10-30T16:02:25.974Z,99.90
2022-10-30T16:04:54.526Z,99.90
2022-10-30T16:07:25.206Z,99.90
2022-10-30T16:09:56.229Z,99.90
2022-10-30T16:12:27.407Z,99.90
2022-10-30T16:14:55.771Z,99.90
2022-10-30T16:17:24.785Z,99.90
2022-10-30T16:19:55.189Z,99.90
2022-10-30T16:22:27.502Z,99.90
2022-10-30T16:24:57.798Z,99.90
2022-10-30T16:27:27.335Z,99.90
2022-10-30T16:29:58.654Z,99.90
2022-10-30T16:32:30.181Z,99.90
2022-10-30T16:34:59.676Z,99.90
2022-10-30T16:37:35.899Z,99.90
2022-10-30T16:40:12.352Z,99.90
2022-10-30T16:42:40.655Z,99.90
2022-10-30T16:45:46.554Z,99.90
2022-10-30T16:48:22.216Z,99.90
2022-10-30T16:50:50.597Z,99.90
2022-10-30T16:53:21.490Z,99.90
2022-10-30T16:55:52.079Z,99.90
2022-10-30T16:58:20.773Z,99.90
2022-10-30T17:00:54.039Z,99.90
2022-10-30T17:03:26.405Z,99.90
2022-10-30T17:06:00.074Z,99.90
2022-10-30T17:08:41.554Z,99.90
2022-10-30T17:11:19.191Z,99.90
2022-10-30T17:14:02.101Z,99.90
2022-10-30T17:16:31.936Z,99.90
2022-10-30T17:19:01.631Z,99.90
2022-10-30T17:21:31.673Z,99.90
2022-10-30T17:24:01.275Z,99.90
2022-10-30T17:26:36.317Z,99.90
2022-10-30T17:29:04.389Z,99.90
2022-10-30T17:31:43.928Z,99.90
2022-10-30T17:34:19.494Z,99.90
2022-10-30T17:36:48.326Z,99.90
2022-10-30T17:39:16.576Z,99.90
2022-10-30T17:41:46.475Z,99.90
2022-10-30T17:44:20.274Z,99.90
2022-10-30T17:46:48.248Z,99.90
2022-10-30T17:49:25.185Z,99.90
2022-10-30T17:51:53.200Z,99.90
2022-10-30T17:54:21.810Z,99.90
2022-10-30T17:56:51.438Z,99.90
2022-10-30T17:59:19.437Z,99.90
2022-10-30T18:01:48.801Z,99.90
2022-10-30T18:04:20.736Z,99.90
2022-10-30T18:06:49.756Z,99.90
2022-10-30T18:09:17.699Z,99.90
2022-10-30T18:11:45.640Z,99.90
2022-10-30T18:14:14.948Z,99.90
2022-10-30T18:16:42.873Z,99.90
2022-10-30T18:19:12.053Z,99.90
2022-10-30T18:21:40.158Z,99.90
2022-10-30T18:24:12.902Z,99.90
2022-10-30T18:26:41.180Z,99.90
2022-10-30T18:29:09.368Z,99.90
2022-10-30T18:31:39.627Z,99.90
2022-10-30T18:34:15.509Z,99.90
2022-10-30T18:36:43.909Z,99.90
2022-10-30T18:39:12.825Z,99.90
2022-10-30T18:41:43.145Z,99.90
2022-10-30T18:44:15.494Z,99.90
2022-10-30T18:46:45.448Z,99.90
2022-10-30T18:49:13.773Z,99.90
2022-10-30T18:51:41.759Z,99.90
2022-10-30T18:54:14.501Z,99.90
2022-10-30T18:56:42.631Z,99.90
2022-10-30T18:59:10.759Z,99.90
2022-10-30T19:01:38.936Z,99.90
2022-10-30T19:04:10.441Z,99.90
2022-10-30T19:06:39.071Z,99.90
2022-10-30T19:09:07.622Z,99.90
2022-10-30T19:11:37.401Z,99.90
2022-10-30T19:14:12.915Z,99.90
2022-10-30T19:16:40.891Z,99.90
2022-10-30T19:19:10.153Z,99.90
2022-10-30T19:21:38.041Z,99.90
2022-10-30T19:24:14.917Z,99.90
2022-10-30T19:26:42.816Z,99.90
2022-10-30T19:29:10.776Z,99.90
2022-10-30T19:31:38.690Z,99.90
2022-10-30T19:34:06.600Z,99.90
2022-10-30T19:44:06.490Z,99.90
2022-10-30T19:46:34.539Z,99.90
2022-10-30T19:49:05.547Z,99.90
2022-10-30T19:51:34.845Z,99.90
2022-10-30T19:54:02.738Z,99.90
2022-10-30T19:56:30.635Z,99.90
2022-10-30T19:58:58.522Z,99.90
2022-10-30T20:01:26.563Z,99.90
2022-10-30T20:03:54.529Z,99.90
2022-10-30T20:06:22.401Z,99.90
2022-10-30T20:08:51.655Z,99.90
2022-10-30T20:11:19.625Z,99.90
2022-10-30T20:13:50.633Z,99.90
2022-10-30T20:16:21.671Z,99.90
2022-10-30T20:18:50.756Z,99.90
2022-10-30T20:21:20.186Z,99.90
2022-10-30T20:23:48.131Z,99.90
2022-10-30T20:26:24.729Z,99.90
2022-10-30T20:28:53.772Z,99.90
2022-10-30T20:31:21.661Z,99.90
2022-10-30T20:33:49.647Z,99.90
2022-10-30T20:36:17.584Z,99.90
2022-10-30T20:38:45.507Z,99.90
2022-10-30T20:41:21.844Z,99.90
2022-10-30T20:43:50.854Z,99.90
2022-10-30T20:46:19.606Z,99.90
2022-10-30T20:48:47.634Z,99.90
2022-10-30T20:51:15.937Z,99.90
2022-10-30T20:53:43.903Z,99.90
2022-10-30T21:11:07.974Z,99.90
2022-10-30T21:13:36.133Z,99.90
2022-10-30T21:16:07.783Z,99.90
2022-10-30T21:18:35.816Z,99.90
2022-10-30T21:21:04.742Z,99.90
2022-10-30T21:23:32.688Z,99.90
2022-10-30T21:26:00.875Z,99.90
2022-10-30T21:28:28.844Z,99.90
2022-10-30T21:31:00.831Z,99.90
2022-10-30T21:33:32.690Z,99.90
2022-10-30T21:36:10.605Z,99.90
2022-10-30T21:38:41.447Z,99.90
2022-10-30T21:41:09.794Z,99.90
2022-10-30T21:43:37.786Z,99.90
2022-10-30T21:46:07.021Z,99.90
2022-10-30T21:48:36.277Z,99.90
2022-10-30T21:51:09.258Z,99.90
2022-10-30T21:53:37.483Z,99.90
2022-10-30T21:56:07.138Z,99.90
2022-10-30T21:58:35.488Z,99.90
2022-10-30T22:01:04.141Z,99.90
2022-10-30T22:03:32.561Z,99.90
2022-10-30T22:06:06.443Z,99.90
2022-10-30T22:08:34.404Z,99.90
2022-10-30T22:11:06.282Z,99.90
2022-10-30T22:13:34.687Z,99.90
2022-10-30T22:16:03.112Z,99.90
2022-10-30T22:18:31.212Z,99.90
2022-10-30T22:21:06.062Z,99.90
2022-10-30T22:23:35.230Z,99.90
2022-10-30T22:26:04.907Z,99.90
2022-10-30T22:28:34.219Z,99.90
2022-10-30T22:31:06.277Z,99.90
2022-10-30T22:33:34.542Z,99.90
2022-10-30T22:36:05.931Z,99.90
2022-10-30T22:38:34.282Z,99.90
2022-10-30T22:41:10.090Z,99.90
2022-10-30T22:43:38.051Z,99.90
2022-10-30T22:46:05.986Z,99.90
2022-10-30T22:48:34.165Z,99.90
2022-10-30T22:51:04.950Z,99.90
2022-10-30T22:53:34.080Z,99.90
2022-10-30T22:56:11.189Z,99.90
2022-10-30T22:58:39.150Z,99.90
2022-10-30T23:01:09.574Z,99.90
2022-10-30T23:03:37.738Z,99.90
2022-10-30T23:06:07.241Z,99.90
2022-10-30T23:08:35.746Z,99.90
2022-10-30T23:11:04.020Z,99.90
2022-10-30T23:13:32.478Z,99.90
2022-10-30T23:16:01.718Z,99.90
2022-10-30T23:18:30.438Z,99.90
2022-10-30T23:21:02.004Z,99.90
2022-10-30T23:23:31.604Z,99.90
2022-10-30T23:26:04.025Z,99.90
2022-10-30T23:28:31.985Z,99.90
2022-10-30T23:30:59.898Z,99.90
2022-10-30T23:33:27.815Z,99.90
2022-10-30T23:35:59.691Z,99.90
2022-10-30T23:38:27.615Z,99.90
2022-10-30T23:40:57.116Z,99.90
2022-10-30T23:43:25.090Z,99.90
2022-10-30T23:45:53.021Z,99.90
2022-10-30T23:48:20.901Z,99.90
2022-10-30T23:50:48.877Z,99.90
2022-10-30T23:53:16.760Z,99.90
2022-10-30T23:55:51.040Z,99.90
2022-10-30T23:58:20.496Z,99.90
